Time;durP1;ratioP1;P1;durP2;ratioP2;P2;SDS_P1;SDS_P2;PMS_P1;PMS_P2;Temp;Humidity;BMP_temperature;BMP_pressure;BME280_temperature;BME280_humidity;BME280_pressure;Samples;Min_cycle;Max_cycle;Signal;HPM_P1;HPM_P2
2022/08/16 00:00:34;;;;;;;12.02;6.93;;;;;;;17.32;75.27;97814.81;4183846;28;20132;-71
2022/08/16 00:02:34;;;;;;;9.00;7.03;;;;;;;17.32;75.99;97820.41;4185314;28;20041;-71
2022/08/16 00:04:35;;;;;;;7.65;6.85;;;;;;;17.37;74.72;97823.44;4184693;28;20094;-71
2022/08/16 00:06:36;;;;;;;9.43;7.25;;;;;;;17.37;75.18;97820.63;4184164;28;20071;-71
2022/08/16 00:08:36;;;;;;;8.93;6.63;;;;;;;17.42;75.17;97822.13;4184236;28;20586;-71
2022/08/16 00:10:37;;;;;;;7.13;6.43;;;;;;;17.46;74.85;97808.03;4184885;28;20040;-71
2022/08/16 00:12:40;;;;;;;8.52;6.78;;;;;;;17.49;74.15;97809.97;4185001;28;20381;-72
2022/08/16 00:14:41;;;;;;;7.65;6.40;;;;;;;17.59;71.85;97806.88;4181667;28;20048;-72
2022/08/16 00:16:41;;;;;;;6.97;6.35;;;;;;;17.62;72.28;97808.78;4184034;28;20516;-71
2022/08/16 00:18:42;;;;;;;11.05;6.57;;;;;;;17.62;71.93;97805.19;4184087;28;20068;-71
2022/08/16 00:20:45;;;;;;;7.75;6.10;;;;;;;17.60;71.78;97811.25;4183064;28;20047;-71
2022/08/16 00:22:46;;;;;;;7.70;6.07;;;;;;;17.52;72.05;97811.88;4185111;28;20695;-71
2022/08/16 00:24:46;;;;;;;12.73;6.90;;;;;;;17.38;72.51;97804.69;4183886;28;20048;-71
2022/08/16 00:26:47;;;;;;;8.18;6.47;;;;;;;17.27;73.00;97820.91;4187661;28;20753;-71
2022/08/16 00:28:48;;;;;;;7.47;6.20;;;;;;;17.18;72.78;97815.16;4185776;28;20115;-71
2022/08/16 00:30:49;;;;;;;9.07;6.57;;;;;;;17.09;73.40;97813.78;4186373;28;20393;-71
2022/08/16 00:32:52;;;;;;;7.70;6.43;;;;;;;16.97;74.53;97811.69;4187597;28;20376;-71
2022/08/16 00:34:53;;;;;;;7.43;6.65;;;;;;;16.87;74.68;97809.94;4187108;28;20052;-71
2022/08/16 00:36:53;;;;;;;11.55;6.53;;;;;;;16.78;75.57;97807.75;4185766;28;20044;-72
2022/08/16 00:38:53;;;;;;;8.07;6.55;;;;;;;16.74;74.62;97812.66;4186589;28;20032;-72
2022/08/16 00:40:54;;;;;;;7.10;6.13;;;;;;;16.65;75.66;97809.63;4188205;28;20396;-72
2022/08/16 00:42:55;;;;;;;9.23;6.60;;;;;;;16.64;77.00;97810.09;4185078;28;20584;-72
2022/08/16 00:45:00;;;;;;;6.72;6.07;;;;;;;16.63;76.68;97814.06;4186995;28;20060;-72
2022/08/16 00:47:08;;;;;;;6.95;6.25;;;;;;;16.69;75.28;97818.75;4187845;28;20033;-72
2022/08/16 00:49:12;;;;;;;9.48;6.38;;;;;;;16.71;75.80;97829.47;4185668;28;20060;-72
2022/08/16 00:51:14;;;;;;;8.18;6.78;;;;;;;16.78;75.78;97820.94;4186357;28;20508;-72
2022/08/16 00:53:17;;;;;;;8.35;6.55;;;;;;;16.84;75.96;97825.56;4187597;28;20082;-71
2022/08/16 00:55:22;;;;;;;8.93;6.00;;;;;;;16.96;77.86;97820.50;4187277;28;20045;-71
2022/08/16 00:57:23;;;;;;;6.00;5.40;;;;;;;17.04;77.09;97814.28;4187934;28;20048;-71
2022/08/16 00:59:25;;;;;;;7.57;6.25;;;;;;;17.17;76.97;97822.00;4174482;28;20358;-71
2022/08/16 01:01:26;;;;;;;6.43;5.75;;;;;;;17.28;76.19;97826.06;4187116;28;20040;-71
2022/08/16 01:03:28;;;;;;;7.45;5.45;;;;;;;17.35;76.47;97816.72;4186795;28;20235;-71
2022/08/16 01:05:29;;;;;;;6.55;5.70;;;;;;;17.46;76.15;97813.63;4186901;28;20516;-71
2022/08/16 01:07:29;;;;;;;9.77;5.80;;;;;;;17.55;75.48;97819.41;4187450;28;20056;-71
2022/08/16 01:09:33;;;;;;;6.28;5.43;;;;;;;17.56;75.29;97813.38;4186395;28;20040;-71
2022/08/16 01:11:35;;;;;;;7.30;5.60;;;;;;;17.57;75.25;97808.56;4187203;28;20387;-71
2022/08/16 01:13:37;;;;;;;;;;;;;;;17.59;75.27;97814.50;4187893;28;20445;-71
2022/08/16 01:15:44;;;;;;;10.57;5.82;;;;;;;17.59;75.65;97806.09;4187373;28;20847;-71
2022/08/16 01:17:46;;;;;;;11.43;5.88;;;;;;;17.57;75.62;97805.75;4185334;28;20045;-71
2022/08/16 01:19:51;;;;;;;8.25;5.70;;;;;;;17.54;75.65;97815.00;4186961;28;20101;-71
2022/08/16 01:21:51;;;;;;;7.85;5.32;;;;;;;17.58;75.56;97819.28;4186525;28;20083;-71
2022/08/16 01:24:14;;;;;;;6.35;5.15;;;;;;;17.58;74.91;97815.72;4186675;28;20055;-71
2022/08/16 01:26:16;;;;;;;6.55;5.07;;;;;;;17.57;74.91;97817.72;4185275;28;20041;-71
2022/08/16 01:28:19;;;;;;;5.43;4.88;;;;;;;17.56;74.79;97818.19;4185950;28;20075;-71
2022/08/16 01:30:41;;;;;;;7.15;5.70;;;;;;;17.48;75.52;97814.78;4185989;28;20365;-71
2022/08/16 01:32:41;;;;;;;8.23;6.13;;;;;;;17.44;75.67;97808.47;4186804;28;20384;-71
2022/08/16 01:34:43;;;;;;;6.82;5.90;;;;;;;17.37;76.02;97815.03;4186931;28;20097;-71
2022/08/16 01:36:44;;;;;;;6.40;5.22;;;;;;;17.36;76.02;97804.31;4186099;28;20392;-71
2022/08/16 01:38:48;;;;;;;8.48;6.70;;;;;;;17.33;76.47;97814.38;4185079;28;20545;-71
2022/08/16 01:40:51;;;;;;;9.00;6.75;;;;;;;17.34;76.39;97806.75;4187187;28;20487;-71
2022/08/16 01:42:52;;;;;;;7.95;5.68;;;;;;;17.36;76.36;97809.91;4186340;28;20147;-71
2022/08/16 01:44:52;;;;;;;6.57;5.50;;;;;;;17.33;76.60;97808.78;4186658;28;20362;-72
2022/08/16 01:46:55;;;;;;;8.50;5.47;;;;;;;17.36;76.63;97812.69;4186124;28;20048;-72
2022/08/16 01:48:57;;;;;;;;;;;;;;;17.34;76.87;97813.13;4186050;28;20147;-72
2022/08/16 01:51:01;;;;;;;6.28;5.20;;;;;;;17.34;76.68;97810.34;4185184;28;19965;-72
2022/08/16 01:53:01;;;;;;;6.25;5.63;;;;;;;17.33;77.08;97817.16;4185906;28;20055;-72
2022/08/16 01:55:04;;;;;;;7.45;5.60;;;;;;;17.33;77.04;97813.59;4186373;28;20412;-72
2022/08/16 01:57:05;;;;;;;;;;;;;;;17.31;77.02;97822.41;4185185;28;20504;-71
2022/08/16 01:59:08;;;;;;;6.80;5.43;;;;;;;17.29;76.49;97822.03;4186027;28;20338;-72
2022/08/16 02:01:08;;;;;;;8.57;5.32;;;;;;;17.26;76.32;97819.34;4185712;28;20102;-72
2022/08/16 02:03:10;;;;;;;8.63;5.35;;;;;;;17.21;75.85;97817.06;4186833;28;20076;-72
2022/08/16 02:05:12;;;;;;;7.20;5.45;;;;;;;17.16;76.72;97812.03;4185441;28;20044;-71
2022/08/16 02:07:14;;;;;;;7.10;5.85;;;;;;;17.09;77.60;97804.59;4186418;28;20528;-72
2022/08/16 02:09:15;;;;;;;8.55;5.32;;;;;;;17.04;78.10;97807.91;4185744;28;20799;-72
2022/08/16 02:11:16;;;;;;;7.72;5.35;;;;;;;16.98;78.29;97796.50;4186268;28;20076;-72
2022/08/16 02:13:17;;;;;;;9.45;6.05;;;;;;;17.02;78.19;97804.78;4186241;28;20067;-72
2022/08/16 02:15:24;;;;;;;7.53;5.60;;;;;;;17.06;76.78;97805.50;4185565;28;20202;-71
2022/08/16 02:17:25;;;;;;;6.43;5.22;;;;;;;17.08;75.78;97809.41;4185340;28;20036;-71
2022/08/16 02:19:28;;;;;;;7.68;5.60;;;;;;;17.18;75.06;97809.56;4184917;28;20040;-71
2022/08/16 02:21:29;;;;;;;7.70;4.97;;;;;;;17.28;74.10;97826.06;4186064;28;20110;-71
2022/08/16 02:23:29;;;;;;;7.38;5.57;;;;;;;17.37;73.21;97814.25;4184934;28;20048;-72
2022/08/16 02:25:29;;;;;;;7.75;5.45;;;;;;;17.28;73.25;97817.69;4186166;28;20086;-71
2022/08/16 02:27:30;;;;;;;7.25;6.18;;;;;;;17.14;73.19;97820.88;4185607;28;20550;-71
2022/08/16 02:29:30;;;;;;;7.88;5.63;;;;;;;17.02;72.76;97815.97;4184324;28;20545;-71
2022/08/16 02:31:31;;;;;;;7.47;5.65;;;;;;;16.83;73.64;97824.00;4185951;28;20052;-72
2022/08/16 02:33:32;;;;;;;8.05;5.80;;;;;;;16.61;74.97;97817.31;4185527;28;20036;-72
2022/08/16 02:35:33;;;;;;;7.93;6.60;;;;;;;16.36;76.98;97829.03;4186284;28;20396;-71
2022/08/16 02:37:33;;;;;;;7.38;5.55;;;;;;;16.17;77.52;97829.84;4186321;28;20203;-71
2022/08/16 02:39:34;;;;;;;8.70;6.07;;;;;;;16.00;78.75;97829.81;4184915;28;20307;-71
2022/08/16 02:41:36;;;;;;;6.47;5.85;;;;;;;15.85;79.33;97825.72;4185772;28;20050;-71
2022/08/16 02:43:37;;;;;;;;;;;;;;;15.77;80.26;97823.50;4184711;28;20474;-71
2022/08/16 02:45:37;;;;;;;7.30;5.68;;;;;;;15.73;80.57;97824.38;4183609;28;19924;-72
2022/08/16 02:47:38;;;;;;;9.13;5.53;;;;;;;15.80;79.60;97831.00;4183309;28;20048;-72
2022/08/16 02:49:38;;;;;;;8.80;5.97;;;;;;;15.82;79.22;97834.16;4177321;28;20190;-72
2022/08/16 02:51:39;;;;;;;8.05;5.80;;;;;;;15.79;79.01;97838.59;4182376;28;20657;-72
2022/08/16 02:53:42;;;;;;;10.20;5.82;;;;;;;15.75;79.41;97846.25;4185715;28;20043;-72
2022/08/16 02:55:43;;;;;;;6.85;5.63;;;;;;;15.72;78.96;97845.09;4183139;28;20044;-72
2022/08/16 02:57:44;;;;;;;8.45;6.30;;;;;;;15.68;79.48;97838.00;4183321;28;20477;-72
2022/08/16 02:59:44;;;;;;;6.55;5.55;;;;;;;15.68;78.95;97836.00;4183051;28;20504;-72
2022/08/16 03:01:45;;;;;;;7.55;5.90;;;;;;;15.69;78.80;97845.16;4182514;28;20120;-72
2022/08/16 03:03:45;;;;;;;6.55;5.22;;;;;;;15.67;79.38;97837.22;4181523;28;20668;-72
2022/08/16 03:05:46;;;;;;;8.63;5.55;;;;;;;15.59;80.10;97840.53;4183204;28;20098;-71
2022/08/16 03:07:46;;;;;;;11.32;6.43;;;;;;;15.65;79.01;97847.25;4183001;28;20045;-71
2022/08/16 03:09:47;;;;;;;8.98;6.13;;;;;;;15.79;77.72;97848.94;4183529;28;20436;-72
2022/08/16 03:11:47;;;;;;;9.65;5.75;;;;;;;15.73;79.22;97845.91;4181352;28;20135;-72
2022/08/16 03:13:53;;;;;;;7.63;6.05;;;;;;;15.68;79.32;97843.59;4182556;28;20465;-72
2022/08/16 03:15:53;;;;;;;8.60;5.93;;;;;;;15.58;79.75;97845.34;4182690;28;20393;-72
2022/08/16 03:17:54;;;;;;;6.80;6.10;;;;;;;15.50;81.11;97848.69;4183291;28;20044;-72
2022/08/16 03:19:54;;;;;;;7.55;5.70;;;;;;;15.49;79.38;97853.47;4181793;28;20045;-72
2022/08/16 03:21:55;;;;;;;7.30;6.15;;;;;;;15.58;78.59;97850.91;4183909;28;20408;-71
2022/08/16 03:23:55;;;;;;;11.25;6.45;;;;;;;15.56;79.87;97849.78;4181919;28;20036;-71
2022/08/16 03:25:55;;;;;;;7.03;6.22;;;;;;;15.50;80.88;97843.91;4181933;28;20045;-71
2022/08/16 03:27:56;;;;;;;8.18;5.97;;;;;;;15.42;80.04;97846.03;4183736;28;20396;-71
2022/08/16 03:29:57;;;;;;;7.38;6.18;;;;;;;15.39;80.35;97837.72;4184071;28;20055;-71
2022/08/16 03:31:59;;;;;;;14.00;8.27;;;;;;;15.33;82.41;97850.56;4183412;28;20300;-71
2022/08/16 03:33:59;;;;;;;9.45;6.57;;;;;;;15.24;82.89;97853.13;4183692;28;20216;-71
2022/08/16 03:36:00;;;;;;;10.80;6.70;;;;;;;15.30;81.00;97845.84;4184239;28;20239;-71
2022/08/16 03:38:03;;;;;;;15.40;7.25;;;;;;;15.33;82.38;97858.94;4183603;28;20311;-71
2022/08/16 03:40:05;;;;;;;13.57;6.93;;;;;;;15.30;82.37;97849.41;4182694;28;20136;-71
2022/08/16 03:42:07;;;;;;;7.85;6.35;;;;;;;15.33;79.99;97851.38;4181226;28;20020;-72
2022/08/16 03:44:07;;;;;;;8.25;6.22;;;;;;;15.37;79.41;97842.94;4183233;28;20029;-72
2022/08/16 03:46:09;;;;;;;16.67;7.18;;;;;;;15.37;79.44;97848.50;4180820;28;20529;-72
2022/08/16 03:48:09;;;;;;;14.30;8.15;;;;;;;15.34;79.46;97847.34;4182279;28;20116;-72
2022/08/16 03:50:10;;;;;;;10.02;6.10;;;;;;;15.32;79.55;97857.38;4183781;28;20084;-72
2022/08/16 03:52:12;;;;;;;10.07;6.35;;;;;;;15.25;80.15;97861.06;4181995;28;20111;-72
2022/08/16 03:54:12;;;;;;;10.93;6.63;;;;;;;15.25;79.46;97860.28;4185034;28;20129;-72
2022/08/16 03:56:12;;;;;;;7.90;6.22;;;;;;;15.21;80.11;97860.31;4184646;28;20099;-72
2022/08/16 03:58:13;;;;;;;9.95;6.13;;;;;;;15.10;81.37;97857.72;4184647;28;20029;-72
2022/08/16 04:00:16;;;;;;;14.27;7.13;;;;;;;15.02;82.02;97874.97;4186308;28;20040;-72
2022/08/16 04:02:17;;;;;;;16.33;6.45;;;;;;;14.94;82.49;97865.94;4184885;28;20194;-71
2022/08/16 04:04:18;;;;;;;11.25;6.95;;;;;;;14.95;81.55;97869.50;4186820;28;20532;-71
2022/08/16 04:06:19;;;;;;;7.28;6.57;;;;;;;14.96;82.49;97871.06;4187033;28;20071;-71
2022/08/16 04:08:20;;;;;;;10.85;6.93;;;;;;;14.93;83.31;97867.16;4187718;28;20422;-71
2022/08/16 04:10:21;;;;;;;10.30;6.85;;;;;;;14.83;84.40;97868.09;4187644;28;20518;-72
2022/08/16 04:12:21;;;;;;;10.13;6.70;;;;;;;14.80;84.89;97885.63;4187864;28;20047;-72
2022/08/16 04:14:21;;;;;;;7.88;6.40;;;;;;;14.74;85.80;97870.63;4188627;28;20469;-72
2022/08/16 04:16:22;;;;;;;11.70;6.45;;;;;;;14.73;86.68;97880.97;4187340;28;20481;-72
2022/08/16 04:18:22;;;;;;;8.50;6.90;;;;;;;14.72;86.03;97884.16;4186834;28;20366;-71
2022/08/16 04:20:24;;;;;;;6.63;5.90;;;;;;;14.71;86.87;97885.38;4188337;28;20052;-71
2022/08/16 04:22:25;;;;;;;7.38;6.13;;;;;;;14.66;87.10;97883.09;4188321;28;20052;-71
2022/08/16 04:24:26;;;;;;;10.68;6.72;;;;;;;14.69;86.30;97885.00;4187455;28;20048;-71
2022/08/16 04:26:26;;;;;;;7.72;6.72;;;;;;;14.72;86.39;97887.75;4188381;28;20044;-71
2022/08/16 04:28:27;;;;;;;7.93;6.38;;;;;;;14.72;86.25;97895.31;4188137;28;20086;-71
2022/08/16 04:30:27;;;;;;;8.27;6.43;;;;;;;14.70;87.14;97886.59;4187275;28;20607;-71
2022/08/16 04:32:27;;;;;;;9.25;6.90;;;;;;;14.71;87.04;97893.72;4187875;28;20044;-71
2022/08/16 04:34:31;;;;;;;8.35;6.53;;;;;;;14.68;87.60;97891.78;4187986;28;20045;-71
2022/08/16 04:36:31;;;;;;;8.13;6.40;;;;;;;14.68;87.76;97889.78;4188427;28;20472;-72
2022/08/16 04:38:32;;;;;;;7.93;6.05;;;;;;;14.71;86.96;97888.16;4188085;28;20354;-72
2022/08/16 04:40:32;;;;;;;6.75;6.05;;;;;;;14.76;86.22;97896.06;4187473;28;20418;-72
2022/08/16 04:42:33;;;;;;;11.45;7.18;;;;;;;14.85;84.47;97905.47;4188139;28;20037;-72
2022/08/16 04:44:33;;;;;;;7.65;6.57;;;;;;;14.93;83.64;97905.34;4187155;28;20445;-72
2022/08/16 04:46:34;;;;;;;7.72;6.90;;;;;;;14.94;84.05;97907.72;4187791;28;20090;-72
2022/08/16 04:48:35;;;;;;;9.55;7.07;;;;;;;14.92;84.79;97903.78;4187637;28;20052;-71
2022/08/16 04:50:35;;;;;;;7.93;6.57;;;;;;;14.92;85.07;97901.78;4186884;28;20042;-71
2022/08/16 04:52:36;;;;;;;8.15;6.63;;;;;;;14.91;85.38;97905.78;4187079;28;20357;-71
2022/08/16 04:54:39;;;;;;;10.82;7.03;;;;;;;14.89;85.33;97894.25;4187080;28;20094;-72
2022/08/16 04:56:39;;;;;;;8.80;6.70;;;;;;;14.91;85.09;97896.63;4187965;28;20461;-72
2022/08/16 04:58:40;;;;;;;9.23;6.72;;;;;;;14.94;84.75;97898.56;4186273;28;20070;-72
2022/08/16 05:00:40;;;;;;;9.02;6.32;;;;;;;14.99;84.41;97895.31;4187619;28;20098;-72
2022/08/16 05:02:41;;;;;;;7.25;6.13;;;;;;;15.07;83.46;97907.94;4186821;28;20454;-72
2022/08/16 05:04:41;;;;;;;11.73;6.72;;;;;;;15.16;83.19;97906.19;4187945;28;20040;-72
2022/08/16 05:06:42;;;;;;;7.63;6.78;;;;;;;15.21;83.08;97901.31;4186740;28;20601;-72
2022/08/16 05:08:42;;;;;;;9.43;6.65;;;;;;;15.33;81.23;97907.09;4185673;28;20400;-72
2022/08/16 05:10:43;;;;;;;9.57;6.95;;;;;;;15.38;81.48;97903.03;4186379;28;20033;-72
2022/08/16 05:12:43;;;;;;;7.95;6.20;;;;;;;15.49;81.67;97902.88;4187326;28;20048;-72
2022/08/16 05:14:43;;;;;;;10.52;6.57;;;;;;;15.59;80.25;97905.47;4187477;28;20438;-71
2022/08/16 05:16:44;;;;;;;8.93;6.95;;;;;;;15.69;80.66;97907.28;4187672;28;20037;-71
2022/08/16 05:18:45;;;;;;;10.38;7.05;;;;;;;15.82;79.29;97912.25;4186852;28;20040;-71
2022/08/16 05:20:46;;;;;;;8.80;6.82;;;;;;;15.92;79.47;97919.66;4187769;28;20076;-71
2022/08/16 05:22:46;;;;;;;9.38;6.57;;;;;;;16.00;79.27;97921.09;4186296;28;20468;-71
2022/08/16 05:24:48;;;;;;;12.25;7.38;;;;;;;16.04;80.08;97913.41;4187262;28;20040;-71
2022/08/16 05:26:48;;;;;;;8.88;6.55;;;;;;;16.13;79.29;97922.00;4186730;28;20052;-71
2022/08/16 05:28:48;;;;;;;9.30;8.02;;;;;;;16.18;80.23;97918.72;4186366;28;20389;-71
2022/08/16 05:30:51;;;;;;;9.98;6.60;;;;;;;16.24;80.67;97925.41;4186760;28;20458;-71
2022/08/16 05:32:51;;;;;;;9.27;7.10;;;;;;;16.29;80.57;97924.09;4187728;28;20036;-71
2022/08/16 05:34:52;;;;;;;11.55;7.45;;;;;;;16.36;79.94;97925.94;4187453;28;20520;-71
2022/08/16 05:36:56;;;;;;;10.25;7.80;;;;;;;16.46;79.04;97919.34;4186241;28;20168;-71
2022/08/16 05:38:56;;;;;;;11.55;7.10;;;;;;;16.60;78.24;97930.22;4187288;28;20037;-71
2022/08/16 05:40:57;;;;;;;10.55;7.15;;;;;;;16.76;77.79;97932.31;4186102;28;20498;-71
2022/08/16 05:42:58;;;;;;;11.70;7.20;;;;;;;16.92;76.85;97935.16;4187156;28;20106;-71
2022/08/16 05:44:59;;;;;;;21.23;7.22;;;;;;;17.06;76.15;97929.25;4186496;28;20534;-71
2022/08/16 05:47:00;;;;;;;13.15;6.63;;;;;;;17.22;75.90;97931.28;4187037;28;20060;-71
2022/08/16 05:49:01;;;;;;;14.07;7.25;;;;;;;17.36;77.04;97928.13;4186946;28;20047;-71
2022/08/16 05:51:02;;;;;;;8.00;6.45;;;;;;;17.51;77.31;97930.56;4186203;28;20040;-71
2022/08/16 05:53:02;;;;;;;11.40;6.63;;;;;;;17.62;74.53;97933.88;4187965;28;20446;-71
2022/08/16 05:55:04;;;;;;;10.52;6.63;;;;;;;17.76;73.61;97938.34;4185935;28;20044;-71
2022/08/16 05:57:05;;;;;;;10.07;6.63;;;;;;;17.88;73.50;97934.84;4186207;28;20028;-71
2022/08/16 05:59:06;;;;;;;9.15;6.28;;;;;;;17.90;73.79;97944.38;4185955;28;20039;-71
2022/08/16 06:01:07;;;;;;;8.50;5.47;;;;;;;17.94;73.34;97939.47;4186922;28;20037;-71
2022/08/16 06:03:07;;;;;;;11.20;6.47;;;;;;;17.99;73.45;97932.56;4186711;28;20449;-71
2022/08/16 06:05:08;;;;;;;6.53;5.15;;;;;;;18.08;72.46;97941.09;4186076;28;20048;-71
2022/08/16 06:07:09;;;;;;;6.63;5.70;;;;;;;18.16;73.36;97941.69;4186997;28;20041;-71
2022/08/16 06:09:11;;;;;;;7.55;6.00;;;;;;;18.25;73.82;97933.44;4186011;28;20090;-71
2022/08/16 06:11:11;;;;;;;8.55;5.28;;;;;;;18.31;73.27;97942.88;4186101;28;20044;-71
2022/08/16 06:13:12;;;;;;;8.23;5.63;;;;;;;18.40;73.55;97940.22;4186017;28;20468;-71
2022/08/16 06:15:16;;;;;;;9.82;6.22;;;;;;;18.47;73.55;97939.22;4178187;28;20212;-71
2022/08/16 06:17:16;;;;;;;9.93;6.07;;;;;;;18.46;73.64;97940.47;4185856;28;20044;-71
2022/08/16 06:19:17;;;;;;;7.10;5.57;;;;;;;18.43;72.97;97941.34;4185479;28;20044;-71
2022/08/16 06:21:17;;;;;;;8.35;5.28;;;;;;;18.40;72.57;97933.81;4186574;28;20052;-71
2022/08/16 06:23:18;;;;;;;5.88;5.28;;;;;;;18.43;72.97;97942.13;4185137;28;20472;-71
2022/08/16 06:25:18;;;;;;;8.05;5.88;;;;;;;18.48;72.86;97941.59;4185418;28;20083;-71
2022/08/16 06:27:18;;;;;;;10.23;5.88;;;;;;;18.49;72.22;97936.75;4185638;28;20364;-71
2022/08/16 06:29:19;;;;;;;10.48;5.60;;;;;;;18.52;72.17;97938.66;4185207;28;20048;-71
2022/08/16 06:31:20;;;;;;;8.60;5.60;;;;;;;18.60;71.23;97945.63;4186432;28;20044;-72
2022/08/16 06:33:20;;;;;;;7.32;5.20;;;;;;;18.71;70.63;97940.53;4185624;28;20036;-72
2022/08/16 06:35:20;;;;;;;6.20;5.55;;;;;;;18.77;69.96;97940.75;4186093;28;20392;-72
2022/08/16 06:37:21;;;;;;;10.32;5.90;;;;;;;18.79;71.61;97935.53;4184528;28;20056;-72
2022/08/16 06:39:21;;;;;;;6.05;4.70;;;;;;;18.78;71.62;97939.53;4185874;28;20082;-72
2022/08/16 06:41:22;;;;;;;8.18;5.70;;;;;;;18.84;71.63;97948.97;4186365;28;20103;-72
2022/08/16 06:43:23;;;;;;;7.40;5.30;;;;;;;18.89;71.41;97951.22;4185520;28;20063;-72
2022/08/16 06:45:23;;;;;;;7.05;5.03;;;;;;;18.92;70.33;97941.13;4186118;28;20388;-72
2022/08/16 06:47:24;;;;;;;5.40;4.88;;;;;;;18.95;70.25;97943.84;4185973;28;20540;-72
2022/08/16 06:49:24;;;;;;;5.88;4.72;;;;;;;19.00;69.70;97951.66;4185871;28;20101;-72
2022/08/16 06:51:24;;;;;;;9.13;5.70;;;;;;;19.13;67.89;97939.69;4185426;28;20036;-72
2022/08/16 06:53:25;;;;;;;6.55;4.95;;;;;;;19.34;67.27;97941.81;4185734;28;20242;-72
2022/08/16 06:55:26;;;;;;;7.43;5.05;;;;;;;19.48;66.87;97946.19;4186541;28;20051;-72
2022/08/16 06:57:26;;;;;;;7.68;5.00;;;;;;;19.57;67.13;97951.91;4183814;28;20067;-72
2022/08/16 06:59:27;;;;;;;7.10;4.30;;;;;;;19.59;67.14;97960.66;4185272;28;20051;-72
2022/08/16 07:01:27;;;;;;;9.80;5.50;;;;;;;19.57;68.25;97961.13;4185661;28;20041;-72
2022/08/16 07:03:29;;;;;;;8.88;5.10;;;;;;;19.57;68.99;97961.13;4186546;28;20048;-72
2022/08/16 07:05:30;;;;;;;6.90;4.88;;;;;;;19.56;69.13;97955.94;4184868;28;20044;-71
2022/08/16 07:07:31;;;;;;;11.10;5.40;;;;;;;19.57;69.25;97966.72;4186148;28;20553;-71
2022/08/16 07:09:31;;;;;;;6.32;4.80;;;;;;;19.52;68.39;97960.84;4185409;28;20048;-71
2022/08/16 07:11:31;;;;;;;6.95;4.78;;;;;;;19.56;67.05;97962.34;4184942;28;20044;-71
2022/08/16 07:13:32;;;;;;;9.48;5.25;;;;;;;19.63;67.40;97959.31;4185364;28;20118;-71
2022/08/16 07:15:33;;;;;;;7.43;5.13;;;;;;;19.76;68.10;97956.47;4185367;28;20501;-72
2022/08/16 07:17:35;;;;;;;8.57;5.10;;;;;;;19.93;68.39;97965.53;4185429;28;20131;-72
2022/08/16 07:19:35;;;;;;;7.70;4.83;;;;;;;20.08;64.65;97954.59;4184832;28;20044;-72
2022/08/16 07:21:36;;;;;;;6.07;4.70;;;;;;;20.21;66.28;97955.34;4185501;28;20051;-72
2022/08/16 07:23:36;;;;;;;7.88;4.97;;;;;;;20.31;64.47;97959.00;4186436;28;20046;-72
2022/08/16 07:25:36;;;;;;;7.78;4.75;;;;;;;20.42;64.59;97954.56;4185271;28;20212;-72
2022/08/16 07:27:38;;;;;;;6.05;4.30;;;;;;;20.50;65.66;97951.53;4185305;28;20396;-72
2022/08/16 07:29:39;;;;;;;5.85;4.60;;;;;;;20.62;65.74;97957.09;4184041;28;20045;-72
2022/08/16 07:31:39;;;;;;;7.50;4.40;;;;;;;20.72;64.83;97952.31;4186201;28;20319;-72
2022/08/16 07:33:40;;;;;;;10.02;4.80;;;;;;;20.82;64.53;97961.56;4174887;28;20044;-72
2022/08/16 07:35:41;;;;;;;7.85;4.10;;;;;;;20.96;62.94;97955.41;4185576;28;20072;-72
2022/08/16 07:37:41;;;;;;;5.57;3.75;;;;;;;21.08;62.93;97953.75;4186881;28;20148;-72
2022/08/16 07:39:42;;;;;;;6.80;4.00;;;;;;;21.20;62.65;97953.66;4184525;28;20465;-72
2022/08/16 07:41:43;;;;;;;6.30;4.10;;;;;;;21.22;62.21;97959.59;4185580;28;20464;-72
2022/08/16 07:43:44;;;;;;;6.75;3.55;;;;;;;21.26;62.02;97948.97;4185945;28;20176;-72
2022/08/16 07:45:44;;;;;;;7.35;4.13;;;;;;;21.34;62.19;97957.94;4185397;28;20461;-72
2022/08/16 07:47:45;;;;;;;6.97;4.35;;;;;;;21.44;61.43;97956.75;4185407;28;20052;-72
2022/08/16 07:49:45;;;;;;;7.78;4.70;;;;;;;21.48;61.14;97943.31;4184573;28;20308;-72
2022/08/16 07:51:46;;;;;;;6.63;4.25;;;;;;;21.58;61.41;97953.34;4185276;28;20049;-72
2022/08/16 07:53:50;;;;;;;5.78;4.53;;;;;;;21.71;60.34;97956.03;4184722;28;20041;-71
2022/08/16 07:55:52;;;;;;;5.43;3.60;;;;;;;21.80;59.62;97950.44;4185646;28;20051;-71
2022/08/16 07:57:53;;;;;;;6.15;4.30;;;;;;;21.85;60.35;97951.84;4184722;28;20351;-72
2022/08/16 07:59:53;;;;;;;4.20;3.80;;;;;;;21.90;59.80;97954.03;4184487;28;20118;-72
2022/08/16 08:01:54;;;;;;;6.43;3.70;;;;;;;21.99;60.13;97961.72;4184859;28;20037;-72
2022/08/16 08:03:55;;;;;;;5.72;4.35;;;;;;;22.05;59.19;97965.50;4185612;28;20078;-72
2022/08/16 08:05:56;;;;;;;5.65;3.88;;;;;;;22.09;59.16;97961.31;4183502;28;20395;-72
2022/08/16 08:07:56;;;;;;;4.22;3.80;;;;;;;22.24;58.21;97963.50;4185496;28;20050;-72
2022/08/16 08:09:57;;;;;;;5.05;3.78;;;;;;;22.29;58.51;97971.31;4184885;28;20062;-72
2022/08/16 08:11:57;;;;;;;4.80;3.72;;;;;;;22.37;57.93;97972.59;4184366;28;20094;-72
2022/08/16 08:14:00;;;;;;;5.15;3.72;;;;;;;22.45;58.20;97975.88;4185265;28;20053;-72
2022/08/16 08:16:00;;;;;;;;;;;;;;;22.53;58.20;97979.94;4185628;28;20506;-72
2022/08/16 08:18:01;;;;;;;6.28;3.83;;;;;;;22.61;57.56;97976.34;4185419;28;19924;-72
2022/08/16 08:20:01;;;;;;;6.05;3.67;;;;;;;22.60;57.27;97976.81;4183429;28;20036;-72
2022/08/16 08:22:03;;;;;;;3.97;3.58;;;;;;;22.63;56.84;97970.22;4185290;28;20036;-72
2022/08/16 08:24:04;;;;;;;5.32;3.90;;;;;;;22.73;56.94;97971.75;4185238;28;20024;-72
2022/08/16 08:26:05;;;;;;;6.07;3.92;;;;;;;22.80;56.04;97970.66;4184905;28;20054;-72
2022/08/16 08:28:05;;;;;;;5.05;3.13;;;;;;;22.74;56.60;97970.50;4185192;28;20384;-72
2022/08/16 08:30:06;;;;;;;4.40;3.45;;;;;;;22.77;56.53;97974.44;4185013;28;20052;-72
2022/08/16 08:32:08;;;;;;;5.03;3.90;;;;;;;22.93;55.56;97969.25;4183659;28;20366;-72
2022/08/16 08:34:09;;;;;;;4.30;3.88;;;;;;;22.91;55.78;97971.75;4185047;28;20040;-72
2022/08/16 08:36:10;;;;;;;5.57;3.83;;;;;;;22.82;55.52;97974.56;4184278;28;20447;-72
2022/08/16 08:38:10;;;;;;;4.47;3.35;;;;;;;22.69;56.11;97979.63;4185311;28;20380;-72
2022/08/16 08:40:11;;;;;;;4.13;3.58;;;;;;;22.59;56.39;97976.03;4184366;28;20032;-71
2022/08/16 08:42:14;;;;;;;7.63;3.70;;;;;;;22.50;56.48;97970.38;4184686;28;20050;-71
2022/08/16 08:44:14;;;;;;;4.05;3.38;;;;;;;22.43;56.93;97976.34;4185445;28;20032;-71
2022/08/16 08:46:15;;;;;;;8.52;4.30;;;;;;;22.40;56.86;97980.88;4186534;28;20020;-71
2022/08/16 08:48:17;;;;;;;5.40;3.40;;;;;;;22.33;57.37;97971.94;4188213;28;20031;-72
2022/08/16 08:50:17;;;;;;;5.43;3.55;;;;;;;22.27;57.21;97974.63;4187121;28;20721;-72
2022/08/16 08:52:18;;;;;;;5.13;3.92;;;;;;;22.26;57.54;97981.50;4187633;28;20025;-72
2022/08/16 08:54:18;;;;;;;4.78;3.33;;;;;;;22.25;57.37;97977.09;4186907;28;20541;-72
2022/08/16 08:56:19;;;;;;;5.68;4.25;;;;;;;22.23;57.11;97978.84;4187365;28;20024;-72
2022/08/16 08:58:19;;;;;;;4.47;3.65;;;;;;;22.23;57.40;97990.88;4187901;28;20094;-72
2022/08/16 09:00:22;;;;;;;5.00;3.47;;;;;;;22.25;57.25;97982.75;4186549;28;20528;-72
2022/08/16 09:02:22;;;;;;;5.57;3.53;;;;;;;22.38;57.40;97988.25;4187187;28;20047;-72
2022/08/16 09:04:23;;;;;;;4.95;3.50;;;;;;;22.46;57.01;97981.03;4187596;28;20075;-72
2022/08/16 09:06:24;;;;;;;4.93;4.18;;;;;;;22.60;57.84;97982.44;4185949;28;20044;-72
2022/08/16 09:08:25;;;;;;;6.45;4.03;;;;;;;22.78;57.67;97981.63;4185737;28;20509;-72
2022/08/16 09:10:25;;;;;;;4.97;3.55;;;;;;;22.96;56.09;97990.09;4187611;28;20044;-72
2022/08/16 09:12:26;;;;;;;5.07;3.55;;;;;;;23.15;55.87;97977.50;4188137;28;20217;-72
2022/08/16 09:14:27;;;;;;;4.32;3.80;;;;;;;23.37;55.87;97977.25;4187065;28;20509;-72
2022/08/16 09:16:28;;;;;;;6.40;3.72;;;;;;;23.57;54.03;97976.69;4187606;28;20068;-72
2022/08/16 09:18:29;;;;;;;4.25;3.10;;;;;;;23.76;51.82;97971.78;4186342;28;20317;-72
2022/08/16 09:20:30;;;;;;;4.78;3.05;;;;;;;23.78;50.98;97972.84;4186712;28;20091;-72
2022/08/16 09:22:31;;;;;;;4.57;3.28;;;;;;;23.80;51.49;97981.63;4187285;28;20645;-72
2022/08/16 09:24:33;;;;;;;3.70;3.38;;;;;;;23.79;50.95;97979.28;4186281;28;20043;-72
2022/08/16 09:26:33;;;;;;;4.03;3.30;;;;;;;23.80;50.51;97975.97;4186427;28;20049;-72
2022/08/16 09:28:34;;;;;;;6.05;3.67;;;;;;;23.77;50.72;97984.63;4186114;28;20728;-71
2022/08/16 09:30:34;;;;;;;4.20;2.92;;;;;;;23.74;50.83;97975.06;4187445;28;20044;-71